sensor_id;sensor_type;location;lat;lon;timestamp;pressure;altitude;pressure_sealevel;temperature
19282;BMP180;9774;52.034;5.342;2024-03-06T00:01:00;101590.00;;;11.80
19282;BMP180;9774;52.034;5.342;2024-03-06T00:03:27;101593.00;;;11.80
19282;BMP180;9774;52.034;5.342;2024-03-06T00:05:54;101597.00;;;11.70
19282;BMP180;9774;52.034;5.342;2024-03-06T00:08:25;101603.00;;;11.60
19282;BMP180;9774;52.034;5.342;2024-03-06T00:10:53;101603.00;;;11.60
19282;BMP180;9774;52.034;5.342;2024-03-06T00:13:20;101604.00;;;11.60
19282;BMP180;9774;52.034;5.342;2024-03-06T00:15:48;101595.00;;;11.60
19282;BMP180;9774;52.034;5.342;2024-03-06T00:18:15;101606.00;;;11.50
19282;BMP180;9774;52.034;5.342;2024-03-06T00:20:42;101599.00;;;11.50
19282;BMP180;9774;52.034;5.342;2024-03-06T00:23:10;101606.00;;;11.50
19282;BMP180;9774;52.034;5.342;2024-03-06T00:25:39;101606.00;;;11.40
19282;BMP180;9774;52.034;5.342;2024-03-06T00:28:06;101614.00;;;11.40
19282;BMP180;9774;52.034;5.342;2024-03-06T00:30:33;101613.00;;;11.40
19282;BMP180;9774;52.034;5.342;2024-03-06T00:33:00;101604.00;;;11.30
19282;BMP180;9774;52.034;5.342;2024-03-06T00:35:27;101609.00;;;11.20
19282;BMP180;9774;52.034;5.342;2024-03-06T00:37:55;101618.00;;;11.20
19282;BMP180;9774;52.034;5.342;2024-03-06T00:40:22;101608.00;;;11.20
19282;BMP180;9774;52.034;5.342;2024-03-06T00:42:51;101617.00;;;11.10
19282;BMP180;9774;52.034;5.342;2024-03-06T00:45:18;101616.00;;;11.10
19282;BMP180;9774;52.034;5.342;2024-03-06T00:47:45;101618.00;;;11.10
19282;BMP180;9774;52.034;5.342;2024-03-06T00:50:12;101612.00;;;11.10
19282;BMP180;9774;52.034;5.342;2024-03-06T00:52:42;101618.00;;;11.00
19282;BMP180;9774;52.034;5.342;2024-03-06T00:55:09;101623.00;;;11.00
19282;BMP180;9774;52.034;5.342;2024-03-06T00:57:37;101628.00;;;11.00
19282;BMP180;9774;52.034;5.342;2024-03-06T01:00:07;101625.00;;;10.90
19282;BMP180;9774;52.034;5.342;2024-03-06T01:02:36;101632.00;;;10.90
19282;BMP180;9774;52.034;5.342;2024-03-06T01:05:04;101639.00;;;10.90
19282;BMP180;9774;52.034;5.342;2024-03-06T01:07:32;101643.00;;;10.90
19282;BMP180;9774;52.034;5.342;2024-03-06T01:10:00;101641.00;;;10.90
19282;BMP180;9774;52.034;5.342;2024-03-06T01:12:28;101642.00;;;11.00
19282;BMP180;9774;52.034;5.342;2024-03-06T01:14:56;101636.00;;;11.00
19282;BMP180;9774;52.034;5.342;2024-03-06T01:17:24;101650.00;;;11.00
19282;BMP180;9774;52.034;5.342;2024-03-06T01:19:52;101647.00;;;11.10
19282;BMP180;9774;52.034;5.342;2024-03-06T01:22:19;101649.00;;;11.10
19282;BMP180;9774;52.034;5.342;2024-03-06T01:24:46;101648.00;;;11.10
19282;BMP180;9774;52.034;5.342;2024-03-06T01:27:16;101653.00;;;11.10
19282;BMP180;9774;52.034;5.342;2024-03-06T01:29:43;101661.00;;;11.20
19282;BMP180;9774;52.034;5.342;2024-03-06T01:32:10;101664.00;;;11.20
19282;BMP180;9774;52.034;5.342;2024-03-06T01:34:38;101647.00;;;11.20
19282;BMP180;9774;52.034;5.342;2024-03-06T01:37:06;101654.00;;;11.30
19282;BMP180;9774;52.034;5.342;2024-03-06T01:39:33;101665.00;;;11.30
19282;BMP180;9774;52.034;5.342;2024-03-06T01:42:01;101654.00;;;11.30
19282;BMP180;9774;52.034;5.342;2024-03-06T01:44:29;101653.00;;;11.30
19282;BMP180;9774;52.034;5.342;2024-03-06T01:46:56;101656.00;;;11.30
19282;BMP180;9774;52.034;5.342;2024-03-06T01:49:25;101656.00;;;11.30
19282;BMP180;9774;52.034;5.342;2024-03-06T01:51:57;101652.00;;;11.30
19282;BMP180;9774;52.034;5.342;2024-03-06T01:54:26;101656.00;;;11.30
19282;BMP180;9774;52.034;5.342;2024-03-06T01:56:54;101661.00;;;11.30
19282;BMP180;9774;52.034;5.342;2024-03-06T01:59:25;101659.00;;;11.20
19282;BMP180;9774;52.034;5.342;2024-03-06T02:01:53;101658.00;;;11.20
19282;BMP180;9774;52.034;5.342;2024-03-06T02:04:21;101661.00;;;11.20
19282;BMP180;9774;52.034;5.342;2024-03-06T02:06:49;101669.00;;;11.20
19282;BMP180;9774;52.034;5.342;2024-03-06T02:09:17;101671.00;;;11.20
19282;BMP180;9774;52.034;5.342;2024-03-06T02:11:45;101669.00;;;11.20
19282;BMP180;9774;52.034;5.342;2024-03-06T02:14:12;101673.00;;;11.20
19282;BMP180;9774;52.034;5.342;2024-03-06T02:16:40;101667.00;;;11.20
19282;BMP180;9774;52.034;5.342;2024-03-06T02:19:08;101666.00;;;11.20
19282;BMP180;9774;52.034;5.342;2024-03-06T02:21:37;101668.00;;;11.20
19282;BMP180;9774;52.034;5.342;2024-03-06T02:24:04;101671.00;;;11.20
19282;BMP180;9774;52.034;5.342;2024-03-06T02:26:32;101679.00;;;11.20
19282;BMP180;9774;52.034;5.342;2024-03-06T02:28:59;101676.00;;;11.10
19282;BMP180;9774;52.034;5.342;2024-03-06T02:31:26;101678.00;;;11.10
19282;BMP180;9774;52.034;5.342;2024-03-06T02:33:53;101682.00;;;11.10
19282;BMP180;9774;52.034;5.342;2024-03-06T02:36:21;101679.00;;;11.10
19282;BMP180;9774;52.034;5.342;2024-03-06T02:38:49;101675.00;;;11.10
19282;BMP180;9774;52.034;5.342;2024-03-06T02:41:16;101674.00;;;11.10
19282;BMP180;9774;52.034;5.342;2024-03-06T02:43:43;101678.00;;;11.10
19282;BMP180;9774;52.034;5.342;2024-03-06T02:46:10;101679.00;;;11.00
19282;BMP180;9774;52.034;5.342;2024-03-06T02:48:37;101678.00;;;11.00
19282;BMP180;9774;52.034;5.342;2024-03-06T02:51:05;101672.00;;;11.00
19282;BMP180;9774;52.034;5.342;2024-03-06T02:53:32;101673.00;;;10.90
19282;BMP180;9774;52.034;5.342;2024-03-06T02:56:00;101672.00;;;10.90
19282;BMP180;9774;52.034;5.342;2024-03-06T02:58:27;101672.00;;;10.90
19282;BMP180;9774;52.034;5.342;2024-03-06T03:00:57;101673.00;;;10.80
19282;BMP180;9774;52.034;5.342;2024-03-06T03:03:24;101674.00;;;10.90
19282;BMP180;9774;52.034;5.342;2024-03-06T03:05:52;101676.00;;;10.80
19282;BMP180;9774;52.034;5.342;2024-03-06T03:08:19;101676.00;;;10.70
19282;BMP180;9774;52.034;5.342;2024-03-06T03:10:46;101679.00;;;10.70
19282;BMP180;9774;52.034;5.342;2024-03-06T03:13:15;101667.00;;;10.70
19282;BMP180;9774;52.034;5.342;2024-03-06T03:15:42;101678.00;;;10.70
19282;BMP180;9774;52.034;5.342;2024-03-06T03:18:09;101672.00;;;10.70
19282;BMP180;9774;52.034;5.342;2024-03-06T03:20:36;101671.00;;;10.60
19282;BMP180;9774;52.034;5.342;2024-03-06T03:23:04;101689.00;;;10.60
19282;BMP180;9774;52.034;5.342;2024-03-06T03:25:32;101682.00;;;10.60
19282;BMP180;9774;52.034;5.342;2024-03-06T03:28:00;101689.00;;;10.50
19282;BMP180;9774;52.034;5.342;2024-03-06T03:30:28;101689.00;;;10.50
19282;BMP180;9774;52.034;5.342;2024-03-06T03:32:56;101692.00;;;10.50
19282;BMP180;9774;52.034;5.342;2024-03-06T03:35:23;101688.00;;;10.50
19282;BMP180;9774;52.034;5.342;2024-03-06T03:37:51;101681.00;;;10.40
19282;BMP180;9774;52.034;5.342;2024-03-06T03:40:18;101685.00;;;10.40
19282;BMP180;9774;52.034;5.342;2024-03-06T03:42:45;101688.00;;;10.40
19282;BMP180;9774;52.034;5.342;2024-03-06T03:45:13;101695.00;;;10.40
19282;BMP180;9774;52.034;5.342;2024-03-06T03:47:42;101692.00;;;10.30
19282;BMP180;9774;52.034;5.342;2024-03-06T03:50:09;101699.00;;;10.30
19282;BMP180;9774;52.034;5.342;2024-03-06T03:52:37;101699.00;;;10.30
19282;BMP180;9774;52.034;5.342;2024-03-06T03:55:07;101703.00;;;10.30
19282;BMP180;9774;52.034;5.342;2024-03-06T03:57:34;101706.00;;;10.20
19282;BMP180;9774;52.034;5.342;2024-03-06T04:00:02;101705.00;;;10.20
19282;BMP180;9774;52.034;5.342;2024-03-06T04:02:36;101701.00;;;10.20
19282;BMP180;9774;52.034;5.342;2024-03-06T04:05:07;101702.00;;;10.20
19282;BMP180;9774;52.034;5.342;2024-03-06T04:07:35;101699.00;;;10.20
19282;BMP180;9774;52.034;5.342;2024-03-06T04:10:04;101693.00;;;10.10
19282;BMP180;9774;52.034;5.342;2024-03-06T04:12:31;101699.00;;;10.10
19282;BMP180;9774;52.034;5.342;2024-03-06T04:14:58;101707.00;;;10.10
19282;BMP180;9774;52.034;5.342;2024-03-06T04:17:25;101704.00;;;10.10
19282;BMP180;9774;52.034;5.342;2024-03-06T04:19:52;101705.00;;;10.10
19282;BMP180;9774;52.034;5.342;2024-03-06T04:22:22;101703.00;;;10.00
19282;BMP180;9774;52.034;5.342;2024-03-06T04:24:49;101704.00;;;10.00
19282;BMP180;9774;52.034;5.342;2024-03-06T04:27:17;101705.00;;;10.00
19282;BMP180;9774;52.034;5.342;2024-03-06T04:29:44;101706.00;;;10.00
19282;BMP180;9774;52.034;5.342;2024-03-06T04:32:11;101712.00;;;10.00
19282;BMP180;9774;52.034;5.342;2024-03-06T04:34:38;101719.00;;;10.00
19282;BMP180;9774;52.034;5.342;2024-03-06T04:37:05;101715.00;;;10.00
19282;BMP180;9774;52.034;5.342;2024-03-06T04:39:34;101718.00;;;10.00
19282;BMP180;9774;52.034;5.342;2024-03-06T04:42:01;101716.00;;;10.00
19282;BMP180;9774;52.034;5.342;2024-03-06T04:44:28;101725.00;;;10.00
19282;BMP180;9774;52.034;5.342;2024-03-06T04:46:55;101729.00;;;10.00
19282;BMP180;9774;52.034;5.342;2024-03-06T04:49:22;101735.00;;;10.00
19282;BMP180;9774;52.034;5.342;2024-03-06T04:51:49;101732.00;;;10.00
19282;BMP180;9774;52.034;5.342;2024-03-06T04:54:16;101731.00;;;10.00
19282;BMP180;9774;52.034;5.342;2024-03-06T04:56:45;101732.00;;;10.00
19282;BMP180;9774;52.034;5.342;2024-03-06T04:59:12;101734.00;;;10.00
19282;BMP180;9774;52.034;5.342;2024-03-06T05:01:39;101745.00;;;10.00
19282;BMP180;9774;52.034;5.342;2024-03-06T05:04:06;101739.00;;;10.00
19282;BMP180;9774;52.034;5.342;2024-03-06T05:06:34;101742.00;;;9.90
19282;BMP180;9774;52.034;5.342;2024-03-06T05:09:01;101742.00;;;9.90
19282;BMP180;9774;52.034;5.342;2024-03-06T05:11:30;101738.00;;;9.90
19282;BMP180;9774;52.034;5.342;2024-03-06T05:14:00;101739.00;;;9.90
19282;BMP180;9774;52.034;5.342;2024-03-06T05:16:27;101749.00;;;9.90
19282;BMP180;9774;52.034;5.342;2024-03-06T05:18:54;101745.00;;;9.90
19282;BMP180;9774;52.034;5.342;2024-03-06T05:21:21;101750.00;;;9.80
19282;BMP180;9774;52.034;5.342;2024-03-06T05:23:49;101751.00;;;9.80
19282;BMP180;9774;52.034;5.342;2024-03-06T05:26:16;101758.00;;;9.80
19282;BMP180;9774;52.034;5.342;2024-03-06T05:28:43;101754.00;;;9.80
19282;BMP180;9774;52.034;5.342;2024-03-06T05:31:19;101762.00;;;9.70
19282;BMP180;9774;52.034;5.342;2024-03-06T05:33:47;101763.00;;;9.70
19282;BMP180;9774;52.034;5.342;2024-03-06T05:36:15;101762.00;;;9.70
19282;BMP180;9774;52.034;5.342;2024-03-06T05:38:43;101766.00;;;9.70
19282;BMP180;9774;52.034;5.342;2024-03-06T05:41:10;101776.00;;;9.70
19282;BMP180;9774;52.034;5.342;2024-03-06T05:43:37;101769.00;;;9.70
19282;BMP180;9774;52.034;5.342;2024-03-06T05:46:06;101775.00;;;9.70
19282;BMP180;9774;52.034;5.342;2024-03-06T05:48:35;101776.00;;;9.60
19282;BMP180;9774;52.034;5.342;2024-03-06T05:51:02;101785.00;;;9.60
19282;BMP180;9774;52.034;5.342;2024-03-06T05:53:30;101782.00;;;9.60
19282;BMP180;9774;52.034;5.342;2024-03-06T05:55:58;101793.00;;;9.60
19282;BMP180;9774;52.034;5.342;2024-03-06T05:58:25;101792.00;;;9.60
19282;BMP180;9774;52.034;5.342;2024-03-06T06:00:52;101789.00;;;9.50
19282;BMP180;9774;52.034;5.342;2024-03-06T06:03:19;101803.00;;;9.50
19282;BMP180;9774;52.034;5.342;2024-03-06T06:05:50;101801.00;;;9.50
19282;BMP180;9774;52.034;5.342;2024-03-06T06:08:17;101802.00;;;9.50
19282;BMP180;9774;52.034;5.342;2024-03-06T06:10:44;101817.00;;;9.50
19282;BMP180;9774;52.034;5.342;2024-03-06T06:13:11;101811.00;;;9.50
19282;BMP180;9774;52.034;5.342;2024-03-06T06:15:39;101822.00;;;9.50
19282;BMP180;9774;52.034;5.342;2024-03-06T06:18:06;101828.00;;;9.50
19282;BMP180;9774;52.034;5.342;2024-03-06T06:20:33;101823.00;;;9.50
19282;BMP180;9774;52.034;5.342;2024-03-06T06:23:02;101823.00;;;9.50
19282;BMP180;9774;52.034;5.342;2024-03-06T06:25:29;101829.00;;;9.50
19282;BMP180;9774;52.034;5.342;2024-03-06T06:27:58;101830.00;;;9.50
19282;BMP180;9774;52.034;5.342;2024-03-06T06:30:25;101839.00;;;9.50
19282;BMP180;9774;52.034;5.342;2024-03-06T06:32:52;101834.00;;;9.50
19282;BMP180;9774;52.034;5.342;2024-03-06T06:35:19;101838.00;;;9.60
19282;BMP180;9774;52.034;5.342;2024-03-06T06:37:48;101839.00;;;9.60
19282;BMP180;9774;52.034;5.342;2024-03-06T06:40:16;101844.00;;;9.60
19282;BMP180;9774;52.034;5.342;2024-03-06T06:42:47;101847.00;;;9.70
19282;BMP180;9774;52.034;5.342;2024-03-06T06:45:16;101856.00;;;9.70
19282;BMP180;9774;52.034;5.342;2024-03-06T06:47:44;101859.00;;;9.70
19282;BMP180;9774;52.034;5.342;2024-03-06T06:50:11;101877.00;;;9.80
19282;BMP180;9774;52.034;5.342;2024-03-06T06:52:39;101875.00;;;9.80
19282;BMP180;9774;52.034;5.342;2024-03-06T06:55:07;101881.00;;;9.90
19282;BMP180;9774;52.034;5.342;2024-03-06T06:57:36;101894.00;;;9.90
19282;BMP180;9774;52.034;5.342;2024-03-06T07:00:06;101894.00;;;10.00
19282;BMP180;9774;52.034;5.342;2024-03-06T07:02:37;101904.00;;;10.10
19282;BMP180;9774;52.034;5.342;2024-03-06T07:05:06;101899.00;;;10.10
19282;BMP180;9774;52.034;5.342;2024-03-06T07:07:34;101899.00;;;10.20
19282;BMP180;9774;52.034;5.342;2024-03-06T07:10:02;101900.00;;;10.30
19282;BMP180;9774;52.034;5.342;2024-03-06T07:12:30;101912.00;;;10.40
19282;BMP180;9774;52.034;5.342;2024-03-06T07:14:59;101912.00;;;10.40
19282;BMP180;9774;52.034;5.342;2024-03-06T07:17:26;101918.00;;;10.50
19282;BMP180;9774;52.034;5.342;2024-03-06T07:19:53;101920.00;;;10.60
19282;BMP180;9774;52.034;5.342;2024-03-06T07:22:20;101919.00;;;10.60
19282;BMP180;9774;52.034;5.342;2024-03-06T07:24:48;101922.00;;;10.70
19282;BMP180;9774;52.034;5.342;2024-03-06T07:27:15;101927.00;;;10.80
19282;BMP180;9774;52.034;5.342;2024-03-06T07:29:44;101935.00;;;10.80
19282;BMP180;9774;52.034;5.342;2024-03-06T07:32:12;101926.00;;;10.90
19282;BMP180;9774;52.034;5.342;2024-03-06T07:34:39;101936.00;;;11.00
19282;BMP180;9774;52.034;5.342;2024-03-06T07:37:06;101944.00;;;11.10
19282;BMP180;9774;52.034;5.342;2024-03-06T07:39:33;101946.00;;;11.10
19282;BMP180;9774;52.034;5.342;2024-03-06T07:42:01;101944.00;;;11.20
19282;BMP180;9774;52.034;5.342;2024-03-06T07:44:28;101943.00;;;11.30
19282;BMP180;9774;52.034;5.342;2024-03-06T07:46:55;101946.00;;;11.30
19282;BMP180;9774;52.034;5.342;2024-03-06T07:49:23;101950.00;;;11.40
19282;BMP180;9774;52.034;5.342;2024-03-06T07:51:51;101944.00;;;11.40
19282;BMP180;9774;52.034;5.342;2024-03-06T07:54:18;101953.00;;;11.50
19282;BMP180;9774;52.034;5.342;2024-03-06T07:56:45;101952.00;;;11.50
19282;BMP180;9774;52.034;5.342;2024-03-06T07:59:12;101958.00;;;11.60
19282;BMP180;9774;52.034;5.342;2024-03-06T08:01:41;101960.00;;;11.60
19282;BMP180;9774;52.034;5.342;2024-03-06T08:04:08;101968.00;;;11.70
19282;BMP180;9774;52.034;5.342;2024-03-06T08:06:37;101961.00;;;11.70
19282;BMP180;9774;52.034;5.342;2024-03-06T08:09:05;101967.00;;;11.80
19282;BMP180;9774;52.034;5.342;2024-03-06T08:11:32;101964.00;;;11.80
19282;BMP180;9774;52.034;5.342;2024-03-06T08:14:00;101963.00;;;11.90
19282;BMP180;9774;52.034;5.342;2024-03-06T08:16:28;101967.00;;;12.00
19282;BMP180;9774;52.034;5.342;2024-03-06T08:18:56;101972.00;;;12.00
19282;BMP180;9774;52.034;5.342;2024-03-06T08:21:25;101969.00;;;12.10
19282;BMP180;9774;52.034;5.342;2024-03-06T08:23:53;101971.00;;;12.10
19282;BMP180;9774;52.034;5.342;2024-03-06T08:26:22;101984.00;;;12.20
19282;BMP180;9774;52.034;5.342;2024-03-06T08:28:49;101990.00;;;12.30
19282;BMP180;9774;52.034;5.342;2024-03-06T08:31:17;101989.00;;;12.30
19282;BMP180;9774;52.034;5.342;2024-03-06T08:33:44;101992.00;;;12.40
19282;BMP180;9774;52.034;5.342;2024-03-06T08:36:11;102004.00;;;12.50
19282;BMP180;9774;52.034;5.342;2024-03-06T08:38:40;101994.00;;;12.50
19282;BMP180;9774;52.034;5.342;2024-03-06T08:41:08;102003.00;;;12.60
19282;BMP180;9774;52.034;5.342;2024-03-06T08:43:36;102011.00;;;12.70
19282;BMP180;9774;52.034;5.342;2024-03-06T08:46:03;102011.00;;;12.70
19282;BMP180;9774;52.034;5.342;2024-03-06T08:48:30;102015.00;;;12.80
19282;BMP180;9774;52.034;5.342;2024-03-06T08:50:57;102020.00;;;12.90
19282;BMP180;9774;52.034;5.342;2024-03-06T08:53:24;102021.00;;;12.90
19282;BMP180;9774;52.034;5.342;2024-03-06T08:55:52;102022.00;;;13.00
19282;BMP180;9774;52.034;5.342;2024-03-06T08:58:20;102025.00;;;13.10
19282;BMP180;9774;52.034;5.342;2024-03-06T09:00:47;102028.00;;;13.10
19282;BMP180;9774;52.034;5.342;2024-03-06T09:03:15;102040.00;;;13.20
19282;BMP180;9774;52.034;5.342;2024-03-06T09:05:42;102032.00;;;13.20
19282;BMP180;9774;52.034;5.342;2024-03-06T09:08:09;102044.00;;;13.30
19282;BMP180;9774;52.034;5.342;2024-03-06T09:10:38;102047.00;;;13.40
19282;BMP180;9774;52.034;5.342;2024-03-06T09:13:05;102045.00;;;13.40
19282;BMP180;9774;52.034;5.342;2024-03-06T09:15:34;102049.00;;;13.40
19282;BMP180;9774;52.034;5.342;2024-03-06T09:18:01;102052.00;;;13.50
19282;BMP180;9774;52.034;5.342;2024-03-06T09:20:29;102059.00;;;13.50
19282;BMP180;9774;52.034;5.342;2024-03-06T09:22:57;102060.00;;;13.60
19282;BMP180;9774;52.034;5.342;2024-03-06T09:25:25;102072.00;;;13.60
19282;BMP180;9774;52.034;5.342;2024-03-06T09:27:53;102067.00;;;13.70
19282;BMP180;9774;52.034;5.342;2024-03-06T09:30:20;102068.00;;;13.70
19282;BMP180;9774;52.034;5.342;2024-03-06T09:32:48;102074.00;;;13.80
19282;BMP180;9774;52.034;5.342;2024-03-06T09:35:16;102078.00;;;13.80
19282;BMP180;9774;52.034;5.342;2024-03-06T09:37:45;102077.00;;;13.90
19282;BMP180;9774;52.034;5.342;2024-03-06T09:40:20;102089.00;;;13.90
19282;BMP180;9774;52.034;5.342;2024-03-06T09:42:48;102083.00;;;14.00
19282;BMP180;9774;52.034;5.342;2024-03-06T09:45:16;102092.00;;;14.10
19282;BMP180;9774;52.034;5.342;2024-03-06T09:47:43;102089.00;;;14.10
19282;BMP180;9774;52.034;5.342;2024-03-06T09:50:17;102095.00;;;14.10
19282;BMP180;9774;52.034;5.342;2024-03-06T09:52:51;102093.00;;;14.20
19282;BMP180;9774;52.034;5.342;2024-03-06T09:55:19;102095.00;;;14.30
19282;BMP180;9774;52.034;5.342;2024-03-06T09:57:46;102099.00;;;14.30
19282;BMP180;9774;52.034;5.342;2024-03-06T10:00:14;102099.00;;;14.40
19282;BMP180;9774;52.034;5.342;2024-03-06T10:02:52;102103.00;;;14.40
19282;BMP180;9774;52.034;5.342;2024-03-06T10:05:23;102105.00;;;14.50
19282;BMP180;9774;52.034;5.342;2024-03-06T10:07:51;102109.00;;;14.50
19282;BMP180;9774;52.034;5.342;2024-03-06T10:10:19;102102.00;;;14.60
19282;BMP180;9774;52.034;5.342;2024-03-06T10:12:49;102106.00;;;14.60
19282;BMP180;9774;52.034;5.342;2024-03-06T10:15:16;102106.00;;;14.70
19282;BMP180;9774;52.034;5.342;2024-03-06T10:17:43;102108.00;;;14.80
19282;BMP180;9774;52.034;5.342;2024-03-06T10:20:24;102107.00;;;14.80
19282;BMP180;9774;52.034;5.342;2024-03-06T10:22:54;102128.00;;;14.90
19282;BMP180;9774;52.034;5.342;2024-03-06T10:25:22;102117.00;;;15.00
19282;BMP180;9774;52.034;5.342;2024-03-06T10:28:04;102128.00;;;14.90
19282;BMP180;9774;52.034;5.342;2024-03-06T10:30:32;102122.00;;;15.10
19282;BMP180;9774;52.034;5.342;2024-03-06T10:33:02;102122.00;;;15.20
19282;BMP180;9774;52.034;5.342;2024-03-06T10:35:31;102121.00;;;15.20
19282;BMP180;9774;52.034;5.342;2024-03-06T10:38:01;102126.00;;;15.20
19282;BMP180;9774;52.034;5.342;2024-03-06T10:40:32;102128.00;;;15.30
19282;BMP180;9774;52.034;5.342;2024-03-06T10:43:01;102131.00;;;15.40
19282;BMP180;9774;52.034;5.342;2024-03-06T10:45:40;102126.00;;;15.40
19282;BMP180;9774;52.034;5.342;2024-03-06T10:48:09;102142.00;;;15.60
19282;BMP180;9774;52.034;5.342;2024-03-06T10:50:41;102139.00;;;15.60
19282;BMP180;9774;52.034;5.342;2024-03-06T10:53:14;102130.00;;;15.70
19282;BMP180;9774;52.034;5.342;2024-03-06T10:55:44;102141.00;;;15.70
19282;BMP180;9774;52.034;5.342;2024-03-06T10:58:12;102140.00;;;15.80
19282;BMP180;9774;52.034;5.342;2024-03-06T11:00:40;102143.00;;;15.90
19282;BMP180;9774;52.034;5.342;2024-03-06T11:03:09;102137.00;;;16.00
19282;BMP180;9774;52.034;5.342;2024-03-06T11:05:39;102132.00;;;16.00
19282;BMP180;9774;52.034;5.342;2024-03-06T11:08:07;102142.00;;;16.10
19282;BMP180;9774;52.034;5.342;2024-03-06T11:10:36;102145.00;;;16.20
19282;BMP180;9774;52.034;5.342;2024-03-06T11:13:08;102152.00;;;16.30
19282;BMP180;9774;52.034;5.342;2024-03-06T11:15:48;102157.00;;;16.40
19282;BMP180;9774;52.034;5.342;2024-03-06T11:18:42;102153.00;;;16.30
19282;BMP180;9774;52.034;5.342;2024-03-06T11:21:30;102156.00;;;16.40
19282;BMP180;9774;52.034;5.342;2024-03-06T11:24:19;102149.00;;;16.40
19282;BMP180;9774;52.034;5.342;2024-03-06T11:26:48;102160.00;;;16.60
19282;BMP180;9774;52.034;5.342;2024-03-06T11:29:17;102150.00;;;16.60
19282;BMP180;9774;52.034;5.342;2024-03-06T11:32:06;102155.00;;;16.50
19282;BMP180;9774;52.034;5.342;2024-03-06T11:34:35;102157.00;;;16.70
19282;BMP180;9774;52.034;5.342;2024-03-06T11:37:08;102150.00;;;16.70
19282;BMP180;9774;52.034;5.342;2024-03-06T11:39:38;102161.00;;;16.70
19282;BMP180;9774;52.034;5.342;2024-03-06T11:42:07;102163.00;;;16.80
19282;BMP180;9774;52.034;5.342;2024-03-06T11:44:36;102160.00;;;16.90
19282;BMP180;9774;52.034;5.342;2024-03-06T11:47:06;102162.00;;;16.90
19282;BMP180;9774;52.034;5.342;2024-03-06T11:49:35;102170.00;;;16.90
19282;BMP180;9774;52.034;5.342;2024-03-06T11:52:06;102159.00;;;16.90
19282;BMP180;9774;52.034;5.342;2024-03-06T11:54:35;102164.00;;;17.00
19282;BMP180;9774;52.034;5.342;2024-03-06T11:57:04;102159.00;;;17.10
19282;BMP180;9774;52.034;5.342;2024-03-06T11:59:34;102165.00;;;17.10
19282;BMP180;9774;52.034;5.342;2024-03-06T12:02:03;102158.00;;;17.10
19282;BMP180;9774;52.034;5.342;2024-03-06T12:04:33;102160.00;;;17.20
19282;BMP180;9774;52.034;5.342;2024-03-06T12:07:02;102160.00;;;17.20
19282;BMP180;9774;52.034;5.342;2024-03-06T12:09:34;102166.00;;;17.30
19282;BMP180;9774;52.034;5.342;2024-03-06T12:12:01;102166.00;;;17.30
19282;BMP180;9774;52.034;5.342;2024-03-06T12:14:29;102173.00;;;17.40
19282;BMP180;9774;52.034;5.342;2024-03-06T12:16:57;102173.00;;;17.40
19282;BMP180;9774;52.034;5.342;2024-03-06T12:19:26;102172.00;;;17.50
19282;BMP180;9774;52.034;5.342;2024-03-06T12:21:58;102167.00;;;17.50
19282;BMP180;9774;52.034;5.342;2024-03-06T12:24:26;102168.00;;;17.60
19282;BMP180;9774;52.034;5.342;2024-03-06T12:27:00;102169.00;;;17.60
19282;BMP180;9774;52.034;5.342;2024-03-06T12:29:30;102168.00;;;17.70
19282;BMP180;9774;52.034;5.342;2024-03-06T12:31:58;102170.00;;;17.80
19282;BMP180;9774;52.034;5.342;2024-03-06T12:34:25;102167.00;;;17.90
19282;BMP180;9774;52.034;5.342;2024-03-06T12:36:52;102170.00;;;17.90
19282;BMP180;9774;52.034;5.342;2024-03-06T12:39:20;102174.00;;;18.00
19282;BMP180;9774;52.034;5.342;2024-03-06T12:41:49;102174.00;;;18.10
19282;BMP180;9774;52.034;5.342;2024-03-06T12:44:19;102179.00;;;18.10
19282;BMP180;9774;52.034;5.342;2024-03-06T12:46:46;102168.00;;;18.20
19282;BMP180;9774;52.034;5.342;2024-03-06T12:49:14;102167.00;;;18.30
19282;BMP180;9774;52.034;5.342;2024-03-06T12:51:42;102166.00;;;18.30
19282;BMP180;9774;52.034;5.342;2024-03-06T12:54:09;102171.00;;;18.40
19282;BMP180;9774;52.034;5.342;2024-03-06T12:56:36;102168.00;;;18.50
19282;BMP180;9774;52.034;5.342;2024-03-06T12:59:04;102161.00;;;18.50
19282;BMP180;9774;52.034;5.342;2024-03-06T13:01:33;102165.00;;;18.60
19282;BMP180;9774;52.034;5.342;2024-03-06T13:04:01;102162.00;;;18.70
19282;BMP180;9774;52.034;5.342;2024-03-06T13:06:28;102166.00;;;18.80
19282;BMP180;9774;52.034;5.342;2024-03-06T13:08:56;102161.00;;;18.90
19282;BMP180;9774;52.034;5.342;2024-03-06T13:11:24;102161.00;;;19.00
19282;BMP180;9774;52.034;5.342;2024-03-06T13:13:51;102163.00;;;19.10
19282;BMP180;9774;52.034;5.342;2024-03-06T13:16:19;102162.00;;;19.20
19282;BMP180;9774;52.034;5.342;2024-03-06T13:18:49;102158.00;;;19.40
19282;BMP180;9774;52.034;5.342;2024-03-06T13:21:18;102161.00;;;19.50
19282;BMP180;9774;52.034;5.342;2024-03-06T13:23:45;102163.00;;;19.80
19282;BMP180;9774;52.034;5.342;2024-03-06T13:26:13;102169.00;;;20.10
19282;BMP180;9774;52.034;5.342;2024-03-06T13:28:40;102171.00;;;20.50
19282;BMP180;9774;52.034;5.342;2024-03-06T13:31:07;102163.00;;;20.90
19282;BMP180;9774;52.034;5.342;2024-03-06T13:33:34;102164.00;;;21.50
19282;BMP180;9774;52.034;5.342;2024-03-06T13:36:03;102170.00;;;22.30
19282;BMP180;9774;52.034;5.342;2024-03-06T13:38:30;102181.00;;;23.10
19282;BMP180;9774;52.034;5.342;2024-03-06T13:40:57;102182.00;;;23.90
19282;BMP180;9774;52.034;5.342;2024-03-06T13:43:28;102185.00;;;24.70
19282;BMP180;9774;52.034;5.342;2024-03-06T13:45:55;102188.00;;;25.40
19282;BMP180;9774;52.034;5.342;2024-03-06T13:48:22;102188.00;;;26.10
19282;BMP180;9774;52.034;5.342;2024-03-06T13:50:49;102190.00;;;26.90
19282;BMP180;9774;52.034;5.342;2024-03-06T13:53:18;102194.00;;;27.50
19282;BMP180;9774;52.034;5.342;2024-03-06T13:55:45;102196.00;;;28.00
19282;BMP180;9774;52.034;5.342;2024-03-06T13:58:12;102196.00;;;28.60
19282;BMP180;9774;52.034;5.342;2024-03-06T14:00:40;102200.00;;;29.10
19282;BMP180;9774;52.034;5.342;2024-03-06T14:03:07;102200.00;;;29.60
19282;BMP180;9774;52.034;5.342;2024-03-06T14:05:34;102197.00;;;30.00
19282;BMP180;9774;52.034;5.342;2024-03-06T14:08:01;102202.00;;;30.40
19282;BMP180;9774;52.034;5.342;2024-03-06T14:10:30;102201.00;;;30.80
19282;BMP180;9774;52.034;5.342;2024-03-06T14:12:59;102206.00;;;31.20
19282;BMP180;9774;52.034;5.342;2024-03-06T14:15:26;102212.00;;;31.50
19282;BMP180;9774;52.034;5.342;2024-03-06T14:17:53;102216.00;;;31.80